sensor_id;sensor_type;location;lat;lon;timestamp;temperature;humidity
666;DHT22;315;48.738;9.126;2023-09-19T00:01:06;16.60;99.90
666;DHT22;315;48.738;9.126;2023-09-19T00:03:37;16.60;99.90
666;DHT22;315;48.738;9.126;2023-09-19T00:06:07;16.60;99.90
666;DHT22;315;48.738;9.126;2023-09-19T00:08:33;16.60;99.90
666;DHT22;315;48.738;9.126;2023-09-19T00:11:00;16.50;99.90
666;DHT22;315;48.738;9.126;2023-09-19T00:13:31;16.50;99.90
666;DHT22;315;48.738;9.126;2023-09-19T00:15:57;16.60;99.90
666;DHT22;315;48.738;9.126;2023-09-19T00:18:25;16.70;99.90
666;DHT22;315;48.738;9.126;2023-09-19T00:21:00;16.50;99.90
666;DHT22;315;48.738;9.126;2023-09-19T00:23:26;16.40;99.90
666;DHT22;315;48.738;9.126;2023-09-19T00:25:52;16.40;99.90
666;DHT22;315;48.738;9.126;2023-09-19T00:28:22;16.40;99.90
666;DHT22;315;48.738;9.126;2023-09-19T00:30:48;16.40;99.90
666;DHT22;315;48.738;9.126;2023-09-19T00:33:17;16.40;99.90
666;DHT22;315;48.738;9.126;2023-09-19T00:35:54;16.40;99.90
666;DHT22;315;48.738;9.126;2023-09-19T00:38:21;16.30;99.90
666;DHT22;315;48.738;9.126;2023-09-19T00:40:48;16.40;99.90
666;DHT22;315;48.738;9.126;2023-09-19T00:43:14;16.40;99.90
666;DHT22;315;48.738;9.126;2023-09-19T00:45:44;16.30;99.90
666;DHT22;315;48.738;9.126;2023-09-19T00:48:11;16.40;99.90
666;DHT22;315;48.738;9.126;2023-09-19T00:50:38;16.50;99.90
666;DHT22;315;48.738;9.126;2023-09-19T00:53:07;16.50;99.90
666;DHT22;315;48.738;9.126;2023-09-19T00:55:34;16.50;99.90
666;DHT22;315;48.738;9.126;2023-09-19T00:58:01;16.50;99.90
666;DHT22;315;48.738;9.126;2023-09-19T01:00:26;16.50;99.90
666;DHT22;315;48.738;9.126;2023-09-19T01:02:52;16.50;99.90
666;DHT22;315;48.738;9.126;2023-09-19T01:05:18;16.50;99.90
666;DHT22;315;48.738;9.126;2023-09-19T01:07:44;16.50;99.90
666;DHT22;315;48.738;9.126;2023-09-19T01:10:15;16.50;99.90
666;DHT22;315;48.738;9.126;2023-09-19T01:13:13;16.50;99.90
666;DHT22;315;48.738;9.126;2023-09-19T01:16:07;16.40;99.90
666;DHT22;315;48.738;9.126;2023-09-19T01:25:13;16.50;99.90
666;DHT22;315;48.738;9.126;2023-09-19T01:28:06;16.50;99.90
666;DHT22;315;48.738;9.126;2023-09-19T01:30:35;16.50;99.90
666;DHT22;315;48.738;9.126;2023-09-19T01:33:05;16.50;99.90
666;DHT22;315;48.738;9.126;2023-09-19T01:35:31;16.50;99.90
666;DHT22;315;48.738;9.126;2023-09-19T01:37:59;16.50;99.90
666;DHT22;315;48.738;9.126;2023-09-19T01:40:25;16.60;99.90
666;DHT22;315;48.738;9.126;2023-09-19T01:43:23;16.50;99.90
666;DHT22;315;48.738;9.126;2023-09-19T01:46:07;16.60;99.90
666;DHT22;315;48.738;9.126;2023-09-19T01:49:18;16.60;99.90
666;DHT22;315;48.738;9.126;2023-09-19T01:52:00;16.60;99.90
666;DHT22;315;48.738;9.126;2023-09-19T01:54:34;16.50;99.90
666;DHT22;315;48.738;9.126;2023-09-19T01:57:13;16.70;99.90
666;DHT22;315;48.738;9.126;2023-09-19T01:59:45;16.60;99.90
666;DHT22;315;48.738;9.126;2023-09-19T02:02:15;16.60;99.90
666;DHT22;315;48.738;9.126;2023-09-19T02:04:43;16.50;99.90
666;DHT22;315;48.738;9.126;2023-09-19T02:07:08;16.60;99.90
666;DHT22;315;48.738;9.126;2023-09-19T02:09:34;16.50;99.90
666;DHT22;315;48.738;9.126;2023-09-19T02:12:01;16.40;99.90
666;DHT22;315;48.738;9.126;2023-09-19T02:14:27;16.40;99.90
666;DHT22;315;48.738;9.126;2023-09-19T02:16:52;16.40;99.90
666;DHT22;315;48.738;9.126;2023-09-19T02:19:19;16.30;99.90
666;DHT22;315;48.738;9.126;2023-09-19T02:21:46;16.30;99.90
666;DHT22;315;48.738;9.126;2023-09-19T02:24:14;16.30;99.90
666;DHT22;315;48.738;9.126;2023-09-19T02:26:40;16.30;99.90
666;DHT22;315;48.738;9.126;2023-09-19T02:29:06;16.20;99.90
666;DHT22;315;48.738;9.126;2023-09-19T02:31:31;16.20;99.90
666;DHT22;315;48.738;9.126;2023-09-19T02:33:57;16.10;99.90
666;DHT22;315;48.738;9.126;2023-09-19T02:36:22;16.10;99.90
666;DHT22;315;48.738;9.126;2023-09-19T02:38:49;16.10;99.90
666;DHT22;315;48.738;9.126;2023-09-19T02:41:14;16.10;99.90
666;DHT22;315;48.738;9.126;2023-09-19T02:43:40;16.00;99.90
666;DHT22;315;48.738;9.126;2023-09-19T02:46:05;16.00;99.90
666;DHT22;315;48.738;9.126;2023-09-19T02:48:31;16.00;99.90
666;DHT22;315;48.738;9.126;2023-09-19T02:50:57;15.90;99.90
666;DHT22;315;48.738;9.126;2023-09-19T02:53:23;15.90;99.90
666;DHT22;315;48.738;9.126;2023-09-19T02:55:49;15.90;99.90
666;DHT22;315;48.738;9.126;2023-09-19T02:58:15;15.90;99.90
666;DHT22;315;48.738;9.126;2023-09-19T03:00:41;15.90;99.90
666;DHT22;315;48.738;9.126;2023-09-19T03:03:12;16.00;99.90
666;DHT22;315;48.738;9.126;2023-09-19T03:05:38;16.10;99.90
666;DHT22;315;48.738;9.126;2023-09-19T03:08:04;16.10;99.90
666;DHT22;315;48.738;9.126;2023-09-19T03:10:30;16.20;99.90
666;DHT22;315;48.738;9.126;2023-09-19T03:12:57;16.20;99.90
666;DHT22;315;48.738;9.126;2023-09-19T03:15:22;16.30;99.90
666;DHT22;315;48.738;9.126;2023-09-19T03:17:49;16.20;99.90
666;DHT22;315;48.738;9.126;2023-09-19T03:20:15;16.30;99.90
666;DHT22;315;48.738;9.126;2023-09-19T03:22:44;16.30;99.90
666;DHT22;315;48.738;9.126;2023-09-19T03:25:10;16.30;99.90
666;DHT22;315;48.738;9.126;2023-09-19T03:27:37;16.30;99.90
666;DHT22;315;48.738;9.126;2023-09-19T03:30:04;16.30;99.90
666;DHT22;315;48.738;9.126;2023-09-19T03:32:36;16.30;99.90
666;DHT22;315;48.738;9.126;2023-09-19T03:35:03;16.30;99.90
666;DHT22;315;48.738;9.126;2023-09-19T03:37:31;16.20;99.90
666;DHT22;315;48.738;9.126;2023-09-19T03:39:57;16.30;99.90
666;DHT22;315;48.738;9.126;2023-09-19T03:42:22;16.30;99.90
666;DHT22;315;48.738;9.126;2023-09-19T03:44:51;16.30;99.90
666;DHT22;315;48.738;9.126;2023-09-19T03:47:17;16.30;99.90
666;DHT22;315;48.738;9.126;2023-09-19T03:49:44;16.30;99.90
666;DHT22;315;48.738;9.126;2023-09-19T03:52:10;16.30;99.90
666;DHT22;315;48.738;9.126;2023-09-19T03:54:35;16.40;99.90
666;DHT22;315;48.738;9.126;2023-09-19T03:57:00;16.40;99.90
666;DHT22;315;48.738;9.126;2023-09-19T03:59:26;16.40;99.90
666;DHT22;315;48.738;9.126;2023-09-19T04:01:52;16.40;99.90
666;DHT22;315;48.738;9.126;2023-09-19T04:04:21;16.40;99.90
666;DHT22;315;48.738;9.126;2023-09-19T04:06:46;16.30;99.90
666;DHT22;315;48.738;9.126;2023-09-19T04:09:12;16.30;99.90
666;DHT22;315;48.738;9.126;2023-09-19T04:11:38;16.30;99.90
666;DHT22;315;48.738;9.126;2023-09-19T04:14:04;16.20;99.90
666;DHT22;315;48.738;9.126;2023-09-19T04:16:29;16.10;99.90
666;DHT22;315;48.738;9.126;2023-09-19T04:18:55;16.10;99.90
666;DHT22;315;48.738;9.126;2023-09-19T04:21:21;16.10;99.90
666;DHT22;315;48.738;9.126;2023-09-19T04:23:46;16.00;99.90
666;DHT22;315;48.738;9.126;2023-09-19T04:26:12;16.00;99.90
666;DHT22;315;48.738;9.126;2023-09-19T04:28:38;15.90;99.90
666;DHT22;315;48.738;9.126;2023-09-19T04:31:04;16.00;99.90
666;DHT22;315;48.738;9.126;2023-09-19T04:33:30;15.90;99.90
666;DHT22;315;48.738;9.126;2023-09-19T04:35:56;15.90;99.90
666;DHT22;315;48.738;9.126;2023-09-19T04:38:21;16.00;99.90
666;DHT22;315;48.738;9.126;2023-09-19T04:40:47;16.00;99.90
666;DHT22;315;48.738;9.126;2023-09-19T04:43:13;16.00;99.90
666;DHT22;315;48.738;9.126;2023-09-19T04:45:41;16.00;99.90
666;DHT22;315;48.738;9.126;2023-09-19T04:48:06;16.00;99.90
666;DHT22;315;48.738;9.126;2023-09-19T04:50:34;16.10;99.90
666;DHT22;315;48.738;9.126;2023-09-19T04:52:59;16.30;99.90
666;DHT22;315;48.738;9.126;2023-09-19T04:55:25;16.20;99.90
666;DHT22;315;48.738;9.126;2023-09-19T04:57:51;16.20;99.90
666;DHT22;315;48.738;9.126;2023-09-19T05:00:20;16.30;99.90
666;DHT22;315;48.738;9.126;2023-09-19T05:02:54;16.30;99.90
666;DHT22;315;48.738;9.126;2023-09-19T05:05:20;16.20;99.90
666;DHT22;315;48.738;9.126;2023-09-19T05:07:47;16.10;99.90
666;DHT22;315;48.738;9.126;2023-09-19T05:10:14;16.10;99.90
666;DHT22;315;48.738;9.126;2023-09-19T05:12:40;16.00;99.90
666;DHT22;315;48.738;9.126;2023-09-19T05:15:06;16.00;99.90
666;DHT22;315;48.738;9.126;2023-09-19T05:17:35;15.90;99.90
666;DHT22;315;48.738;9.126;2023-09-19T05:20:02;16.00;99.90
666;DHT22;315;48.738;9.126;2023-09-19T05:22:43;15.90;99.90
666;DHT22;315;48.738;9.126;2023-09-19T05:25:09;15.80;99.90
666;DHT22;315;48.738;9.126;2023-09-19T05:27:35;15.80;99.90
666;DHT22;315;48.738;9.126;2023-09-19T05:30:01;15.70;99.90
666;DHT22;315;48.738;9.126;2023-09-19T05:32:26;15.70;99.90
666;DHT22;315;48.738;9.126;2023-09-19T05:34:52;15.70;99.90
666;DHT22;315;48.738;9.126;2023-09-19T05:37:22;15.70;99.90
666;DHT22;315;48.738;9.126;2023-09-19T05:39:48;15.70;99.90
666;DHT22;315;48.738;9.126;2023-09-19T05:42:14;15.70;99.90
666;DHT22;315;48.738;9.126;2023-09-19T05:44:39;15.70;99.90
666;DHT22;315;48.738;9.126;2023-09-19T05:47:05;15.80;99.90
666;DHT22;315;48.738;9.126;2023-09-19T05:49:35;15.80;99.90
666;DHT22;315;48.738;9.126;2023-09-19T05:52:04;16.00;99.90
666;DHT22;315;48.738;9.126;2023-09-19T05:54:30;16.10;99.90
666;DHT22;315;48.738;9.126;2023-09-19T05:56:55;16.10;99.90
666;DHT22;315;48.738;9.126;2023-09-19T05:59:23;16.10;99.90
666;DHT22;315;48.738;9.126;2023-09-19T06:01:48;16.10;99.90
666;DHT22;315;48.738;9.126;2023-09-19T06:04:14;16.00;99.90
666;DHT22;315;48.738;9.126;2023-09-19T06:06:39;15.90;99.90
666;DHT22;315;48.738;9.126;2023-09-19T06:09:06;15.80;99.90
666;DHT22;315;48.738;9.126;2023-09-19T06:11:34;15.90;99.90
666;DHT22;315;48.738;9.126;2023-09-19T06:14:01;15.80;99.90
666;DHT22;315;48.738;9.126;2023-09-19T06:16:28;16.30;99.90
666;DHT22;315;48.738;9.126;2023-09-19T06:18:54;16.30;99.90
666;DHT22;315;48.738;9.126;2023-09-19T06:21:22;16.10;99.90
666;DHT22;315;48.738;9.126;2023-09-19T06:23:47;16.00;99.90
666;DHT22;315;48.738;9.126;2023-09-19T06:26:13;15.80;99.90
666;DHT22;315;48.738;9.126;2023-09-19T06:28:38;15.70;99.90
666;DHT22;315;48.738;9.126;2023-09-19T06:31:04;15.60;99.90
666;DHT22;315;48.738;9.126;2023-09-19T06:33:35;15.70;99.90
666;DHT22;315;48.738;9.126;2023-09-19T06:36:03;15.70;99.90
666;DHT22;315;48.738;9.126;2023-09-19T06:38:30;15.60;99.90
666;DHT22;315;48.738;9.126;2023-09-19T06:40:56;15.60;99.90
666;DHT22;315;48.738;9.126;2023-09-19T06:43:22;15.70;99.90
666;DHT22;315;48.738;9.126;2023-09-19T06:45:49;15.70;99.90
666;DHT22;315;48.738;9.126;2023-09-19T06:48:15;15.70;99.90
666;DHT22;315;48.738;9.126;2023-09-19T06:50:41;15.80;99.90
666;DHT22;315;48.738;9.126;2023-09-19T06:53:09;15.90;99.90
666;DHT22;315;48.738;9.126;2023-09-19T06:55:35;16.10;99.90
666;DHT22;315;48.738;9.126;2023-09-19T06:58:02;16.10;99.90
666;DHT22;315;48.738;9.126;2023-09-19T07:00:27;16.30;99.90
666;DHT22;315;48.738;9.126;2023-09-19T07:03:01;16.40;99.90
666;DHT22;315;48.738;9.126;2023-09-19T07:05:29;16.60;99.90
666;DHT22;315;48.738;9.126;2023-09-19T07:07:56;16.80;99.90
666;DHT22;315;48.738;9.126;2023-09-19T07:10:24;17.00;99.90
666;DHT22;315;48.738;9.126;2023-09-19T07:15:25;17.30;99.90
666;DHT22;315;48.738;9.126;2023-09-19T07:17:54;17.40;99.90
666;DHT22;315;48.738;9.126;2023-09-19T07:20:22;17.40;99.90
666;DHT22;315;48.738;9.126;2023-09-19T07:22:49;17.60;99.90
666;DHT22;315;48.738;9.126;2023-09-19T07:25:16;17.90;99.90
666;DHT22;315;48.738;9.126;2023-09-19T07:27:42;18.20;99.90
666;DHT22;315;48.738;9.126;2023-09-19T07:30:08;18.50;99.90
666;DHT22;315;48.738;9.126;2023-09-19T07:32:35;18.70;99.90
666;DHT22;315;48.738;9.126;2023-09-19T07:35:02;18.60;99.90
666;DHT22;315;48.738;9.126;2023-09-19T07:37:29;18.90;99.90
666;DHT22;315;48.738;9.126;2023-09-19T07:39:56;19.00;99.90
666;DHT22;315;48.738;9.126;2023-09-19T07:42:22;18.70;99.90
666;DHT22;315;48.738;9.126;2023-09-19T07:44:47;18.90;99.90
666;DHT22;315;48.738;9.126;2023-09-19T07:47:16;19.20;99.90
666;DHT22;315;48.738;9.126;2023-09-19T07:49:42;19.40;99.90
666;DHT22;315;48.738;9.126;2023-09-19T07:52:08;19.70;99.90
666;DHT22;315;48.738;9.126;2023-09-19T07:54:35;20.00;99.90
666;DHT22;315;48.738;9.126;2023-09-19T07:57:01;19.50;99.90
666;DHT22;315;48.738;9.126;2023-09-19T07:59:27;19.40;99.90
666;DHT22;315;48.738;9.126;2023-09-19T08:01:53;19.30;99.90
666;DHT22;315;48.738;9.126;2023-09-19T08:04:19;19.10;99.90
666;DHT22;315;48.738;9.126;2023-09-19T08:06:44;19.00;99.90
666;DHT22;315;48.738;9.126;2023-09-19T08:09:10;19.40;99.90
666;DHT22;315;48.738;9.126;2023-09-19T08:11:37;19.70;99.90
666;DHT22;315;48.738;9.126;2023-09-19T08:14:04;20.20;99.90
666;DHT22;315;48.738;9.126;2023-09-19T08:16:31;20.30;99.90
666;DHT22;315;48.738;9.126;2023-09-19T08:18:56;21.00;99.90
666;DHT22;315;48.738;9.126;2023-09-19T08:21:22;21.30;99.90
666;DHT22;315;48.738;9.126;2023-09-19T08:23:49;21.00;99.90
666;DHT22;315;48.738;9.126;2023-09-19T08:26:15;20.70;99.90
666;DHT22;315;48.738;9.126;2023-09-19T08:28:40;20.80;99.90
666;DHT22;315;48.738;9.126;2023-09-19T08:31:07;21.20;99.90
666;DHT22;315;48.738;9.126;2023-09-19T08:33:34;21.10;99.90
666;DHT22;315;48.738;9.126;2023-09-19T08:36:04;20.90;99.90
666;DHT22;315;48.738;9.126;2023-09-19T08:38:33;20.80;99.90
666;DHT22;315;48.738;9.126;2023-09-19T08:41:01;20.70;99.90
666;DHT22;315;48.738;9.126;2023-09-19T08:43:30;20.70;99.90
666;DHT22;315;48.738;9.126;2023-09-19T08:46:14;20.30;99.90
666;DHT22;315;48.738;9.126;2023-09-19T08:48:57;20.30;99.90
666;DHT22;315;48.738;9.126;2023-09-19T08:51:38;20.10;99.90
666;DHT22;315;48.738;9.126;2023-09-19T08:54:08;20.00;99.90
666;DHT22;315;48.738;9.126;2023-09-19T08:56:39;20.40;99.90
666;DHT22;315;48.738;9.126;2023-09-19T08:59:05;20.80;99.90
666;DHT22;315;48.738;9.126;2023-09-19T09:01:35;21.70;99.90
666;DHT22;315;48.738;9.126;2023-09-19T09:04:02;22.10;99.90
666;DHT22;315;48.738;9.126;2023-09-19T09:06:28;23.10;99.90
666;DHT22;315;48.738;9.126;2023-09-19T09:08:54;23.50;99.90
666;DHT22;315;48.738;9.126;2023-09-19T09:11:21;23.60;99.90
666;DHT22;315;48.738;9.126;2023-09-19T09:13:48;22.60;99.90
666;DHT22;315;48.738;9.126;2023-09-19T09:16:14;22.40;99.90
666;DHT22;315;48.738;9.126;2023-09-19T09:18:46;23.20;99.90
666;DHT22;315;48.738;9.126;2023-09-19T09:21:18;23.50;99.90
666;DHT22;315;48.738;9.126;2023-09-19T09:23:44;23.70;99.90
666;DHT22;315;48.738;9.126;2023-09-19T09:26:09;24.20;99.90
666;DHT22;315;48.738;9.126;2023-09-19T09:28:35;24.60;99.90
666;DHT22;315;48.738;9.126;2023-09-19T09:31:22;24.60;99.90
666;DHT22;315;48.738;9.126;2023-09-19T09:33:55;24.50;99.90
666;DHT22;315;48.738;9.126;2023-09-19T09:36:40;25.00;99.90
666;DHT22;315;48.738;9.126;2023-09-19T09:39:07;24.70;99.90
666;DHT22;315;48.738;9.126;2023-09-19T09:41:50;23.80;99.90
666;DHT22;315;48.738;9.126;2023-09-19T09:44:17;23.20;99.90
666;DHT22;315;48.738;9.126;2023-09-19T09:46:45;23.90;99.90
666;DHT22;315;48.738;9.126;2023-09-19T09:49:24;25.00;99.90
666;DHT22;315;48.738;9.126;2023-09-19T09:52:01;24.60;99.90
666;DHT22;315;48.738;9.126;2023-09-19T09:54:31;24.10;99.90
666;DHT22;315;48.738;9.126;2023-09-19T09:57:09;23.80;99.90
666;DHT22;315;48.738;9.126;2023-09-19T10:00:02;23.50;99.90
666;DHT22;315;48.738;9.126;2023-09-19T10:02:37;22.60;99.90
666;DHT22;315;48.738;9.126;2023-09-19T10:08:11;22.60;99.90
666;DHT22;315;48.738;9.126;2023-09-19T10:10:41;22.60;99.90
666;DHT22;315;48.738;9.126;2023-09-19T10:13:07;23.40;99.90
666;DHT22;315;48.738;9.126;2023-09-19T10:15:37;24.50;99.70
666;DHT22;315;48.738;9.126;2023-09-19T10:18:06;25.90;96.20
666;DHT22;315;48.738;9.126;2023-09-19T10:20:34;26.70;93.60
666;DHT22;315;48.738;9.126;2023-09-19T10:23:06;26.80;91.30
666;DHT22;315;48.738;9.126;2023-09-19T10:25:39;28.10;87.30
666;DHT22;315;48.738;9.126;2023-09-19T10:28:12;28.70;81.60
666;DHT22;315;48.738;9.126;2023-09-19T10:30:41;29.30;75.10
666;DHT22;315;48.738;9.126;2023-09-19T10:33:11;29.50;68.60
666;DHT22;315;48.738;9.126;2023-09-19T10:35:39;29.10;67.40
666;DHT22;315;48.738;9.126;2023-09-19T10:38:10;28.70;66.80
666;DHT22;315;48.738;9.126;2023-09-19T10:40:37;30.00;65.40
666;DHT22;315;48.738;9.126;2023-09-19T10:43:06;30.20;61.90
666;DHT22;315;48.738;9.126;2023-09-19T10:45:33;30.60;61.50
666;DHT22;315;48.738;9.126;2023-09-19T10:48:03;30.70;58.00
666;DHT22;315;48.738;9.126;2023-09-19T10:50:36;30.70;55.90
666;DHT22;315;48.738;9.126;2023-09-19T10:53:07;32.10;54.90
666;DHT22;315;48.738;9.126;2023-09-19T10:55:36;32.20;52.40
666;DHT22;315;48.738;9.126;2023-09-19T10:58:02;31.80;52.60
666;DHT22;315;48.738;9.126;2023-09-19T11:00:51;31.40;52.50
666;DHT22;315;48.738;9.126;2023-09-19T11:03:18;30.20;52.00
666;DHT22;315;48.738;9.126;2023-09-19T11:06:18;29.20;53.30
666;DHT22;315;48.738;9.126;2023-09-19T11:09:01;28.90;54.10
666;DHT22;315;48.738;9.126;2023-09-19T11:11:39;28.80;55.20
666;DHT22;315;48.738;9.126;2023-09-19T11:30:38;30.40;50.10
666;DHT22;315;48.738;9.126;2023-09-19T11:33:30;29.50;52.10
666;DHT22;315;48.738;9.126;2023-09-19T11:36:05;28.30;53.20
666;DHT22;315;48.738;9.126;2023-09-19T11:43:51;26.70;57.30
666;DHT22;315;48.738;9.126;2023-09-19T11:46:17;27.00;57.00
666;DHT22;315;48.738;9.126;2023-09-19T11:48:48;28.70;55.10
666;DHT22;315;48.738;9.126;2023-09-19T11:51:16;29.60;52.30
666;DHT22;315;48.738;9.126;2023-09-19T11:53:47;29.80;52.20
666;DHT22;315;48.738;9.126;2023-09-19T11:56:21;31.60;48.80
666;DHT22;315;48.738;9.126;2023-09-19T11:58:53;31.10;49.50
666;DHT22;315;48.738;9.126;2023-09-19T12:01:27;29.20;51.00
666;DHT22;315;48.738;9.126;2023-09-19T12:03:55;28.20;53.10
666;DHT22;315;48.738;9.126;2023-09-19T12:06:29;26.60;55.10
666;DHT22;315;48.738;9.126;2023-09-19T12:08:55;25.40;58.80
666;DHT22;315;48.738;9.126;2023-09-19T12:11:27;25.60;59.10
666;DHT22;315;48.738;9.126;2023-09-19T12:13:53;25.70;59.10
666;DHT22;315;48.738;9.126;2023-09-19T12:16:22;25.70;59.90
666;DHT22;315;48.738;9.126;2023-09-19T12:18:48;27.30;57.70
666;DHT22;315;48.738;9.126;2023-09-19T12:24:05;26.60;58.00
666;DHT22;315;48.738;9.126;2023-09-19T12:26:38;26.70;58.20
666;DHT22;315;48.738;9.126;2023-09-19T12:29:20;28.20;55.60
666;DHT22;315;48.738;9.126;2023-09-19T12:31:54;30.30;52.50
666;DHT22;315;48.738;9.126;2023-09-19T12:34:32;30.50;50.40
666;DHT22;315;48.738;9.126;2023-09-19T12:37:13;28.90;53.00
666;DHT22;315;48.738;9.126;2023-09-19T12:39:52;30.90;52.40
666;DHT22;315;48.738;9.126;2023-09-19T12:42:23;32.50;48.70
666;DHT22;315;48.738;9.126;2023-09-19T12:44:51;32.10;48.10
666;DHT22;315;48.738;9.126;2023-09-19T12:47:22;32.40;47.60
666;DHT22;315;48.738;9.126;2023-09-19T12:50:12;32.20;47.30
666;DHT22;315;48.738;9.126;2023-09-19T12:52:48;33.00;46.10
666;DHT22;315;48.738;9.126;2023-09-19T12:55:25;31.70;47.30
666;DHT22;315;48.738;9.126;2023-09-19T13:00:39;32.90;45.70
666;DHT22;315;48.738;9.126;2023-09-19T13:03:28;34.50;43.10
666;DHT22;315;48.738;9.126;2023-09-19T13:05:59;34.50;43.30
666;DHT22;315;48.738;9.126;2023-09-19T13:08:30;34.10;42.80
666;DHT22;315;48.738;9.126;2023-09-19T13:11:07;34.30;42.80
666;DHT22;315;48.738;9.126;2023-09-19T13:16:19;33.00;42.30
666;DHT22;315;48.738;9.126;2023-09-19T13:18:49;31.60;45.50
666;DHT22;315;48.738;9.126;2023-09-19T13:21:36;32.10;44.40
666;DHT22;315;48.738;9.126;2023-09-19T13:24:21;32.60;44.10
666;DHT22;315;48.738;9.126;2023-09-19T13:26:48;32.50;43.10
666;DHT22;315;48.738;9.126;2023-09-19T13:29:15;31.60;44.60
666;DHT22;315;48.738;9.126;2023-09-19T13:31:48;30.80;45.10
666;DHT22;315;48.738;9.126;2023-09-19T13:34:15;29.50;47.30
666;DHT22;315;48.738;9.126;2023-09-19T13:36:41;28.60;48.00
666;DHT22;315;48.738;9.126;2023-09-19T13:39:07;27.10;50.20
666;DHT22;315;48.738;9.126;2023-09-19T13:41:37;26.70;51.50
666;DHT22;315;48.738;9.126;2023-09-19T13:44:03;26.20;52.80
666;DHT22;315;48.738;9.126;2023-09-19T13:46:30;26.00;53.50
666;DHT22;315;48.738;9.126;2023-09-19T13:49:01;25.90;53.20
666;DHT22;315;48.738;9.126;2023-09-19T13:51:30;25.90;53.40
666;DHT22;315;48.738;9.126;2023-09-19T13:53:56;25.70;54.00
666;DHT22;315;48.738;9.126;2023-09-19T13:56:22;25.90;54.40
666;DHT22;315;48.738;9.126;2023-09-19T13:58:48;25.70;55.30
666;DHT22;315;48.738;9.126;2023-09-19T14:01:13;25.40;55.80
666;DHT22;315;48.738;9.126;2023-09-19T14:03:39;25.00;57.50
666;DHT22;315;48.738;9.126;2023-09-19T14:06:05;24.70;58.90
666;DHT22;315;48.738;9.126;2023-09-19T14:08:31;24.30;60.20
666;DHT22;315;48.738;9.126;2023-09-19T14:10:58;24.10;61.60
666;DHT22;315;48.738;9.126;2023-09-19T14:13:24;24.00;63.80
666;DHT22;315;48.738;9.126;2023-09-19T14:15:50;23.90;66.20
666;DHT22;315;48.738;9.126;2023-09-19T14:18:16;23.80;67.60
666;DHT22;315;48.738;9.126;2023-09-19T14:20:43;23.70;69.60
666;DHT22;315;48.738;9.126;2023-09-19T14:23:09;23.60;67.60
666;DHT22;315;48.738;9.126;2023-09-19T14:25:35;23.50;65.80
666;DHT22;315;48.738;9.126;2023-09-19T14:28:01;23.50;66.40
666;DHT22;315;48.738;9.126;2023-09-19T14:30:27;23.40;67.10
666;DHT22;315;48.738;9.126;2023-09-19T14:32:53;23.40;68.10
666;DHT22;315;48.738;9.126;2023-09-19T14:35:19;23.40;67.70
666;DHT22;315;48.738;9.126;2023-09-19T14:37:44;23.30;68.30
666;DHT22;315;48.738;9.126;2023-09-19T14:40:11;23.30;66.50
666;DHT22;315;48.738;9.126;2023-09-19T14:42:39;23.20;65.60
666;DHT22;315;48.738;9.126;2023-09-19T14:45:05;23.10;66.50
666;DHT22;315;48.738;9.126;2023-09-19T14:47:31;23.30;67.10
666;DHT22;315;48.738;9.126;2023-09-19T14:50:00;23.30;65.10
666;DHT22;315;48.738;9.126;2023-09-19T14:52:25;23.30;64.00
666;DHT22;315;48.738;9.126;2023-09-19T14:54:53;23.20;65.60
666;DHT22;315;48.738;9.126;2023-09-19T14:57:20;23.10;66.50
666;DHT22;315;48.738;9.126;2023-09-19T14:59:49;23.00;66.60
666;DHT22;315;48.738;9.126;2023-09-19T15:02:14;22.90;65.60
666;DHT22;315;48.738;9.126;2023-09-19T15:04:42;23.00;67.30
666;DHT22;315;48.738;9.126;2023-09-19T15:07:13;22.90;68.20
666;DHT22;315;48.738;9.126;2023-09-19T15:09:40;22.80;68.50
666;DHT22;315;48.738;9.126;2023-09-19T15:12:06;22.80;67.50
666;DHT22;315;48.738;9.126;2023-09-19T15:14:32;22.80;67.30
666;DHT22;315;48.738;9.126;2023-09-19T15:16:57;22.80;68.80
666;DHT22;315;48.738;9.126;2023-09-19T15:19:23;22.80;67.90
666;DHT22;315;48.738;9.126;2023-09-19T15:21:48;22.80;67.70
666;DHT22;315;48.738;9.126;2023-09-19T15:24:14;22.70;68.80
666;DHT22;315;48.738;9.126;2023-09-19T15:26:40;22.80;69.50
666;DHT22;315;48.738;9.126;2023-09-19T15:29:06;22.80;69.00
666;DHT22;315;48.738;9.126;2023-09-19T15:31:32;22.70;69.90
666;DHT22;315;48.738;9.126;2023-09-19T15:33:58;22.60;69.50
666;DHT22;315;48.738;9.126;2023-09-19T15:36:23;22.50;70.20
666;DHT22;315;48.738;9.126;2023-09-19T15:39:08;22.30;71.90
666;DHT22;315;48.738;9.126;2023-09-19T15:41:41;22.40;71.80
666;DHT22;315;48.738;9.126;2023-09-19T15:44:18;22.20;73.40
666;DHT22;315;48.738;9.126;2023-09-19T15:46:44;22.20;73.20
666;DHT22;315;48.738;9.126;2023-09-19T15:49:10;22.20;74.90
666;DHT22;315;48.738;9.126;2023-09-19T15:51:36;22.10;75.60
666;DHT22;315;48.738;9.126;2023-09-19T15:54:08;22.10;77.20
666;DHT22;315;48.738;9.126;2023-09-19T15:56:34;22.10;75.30
666;DHT22;315;48.738;9.126;2023-09-19T15:59:03;22.00;78.20
666;DHT22;315;48.738;9.126;2023-09-19T16:01:29;21.90;75.80
666;DHT22;315;48.738;9.126;2023-09-19T16:03:54;21.80;78.80
666;DHT22;315;48.738;9.126;2023-09-19T16:06:26;21.70;79.30
666;DHT22;315;48.738;9.126;2023-09-19T16:08:53;21.70;81.70
666;DHT22;315;48.738;9.126;2023-09-19T16:11:19;21.70;81.60
666;DHT22;315;48.738;9.126;2023-09-19T16:13:49;21.60;81.00
666;DHT22;315;48.738;9.126;2023-09-19T16:16:16;21.60;83.60
666;DHT22;315;48.738;9.126;2023-09-19T16:18:46;21.60;84.60
666;DHT22;315;48.738;9.126;2023-09-19T16:21:13;21.60;85.20
666;DHT22;315;48.738;9.126;2023-09-19T16:23:39;21.60;86.80
666;DHT22;315;48.738;9.126;2023-09-19T16:26:08;21.50;86.40
666;DHT22;315;48.738;9.126;2023-09-19T16:28:35;21.50;89.40
666;DHT22;315;48.738;9.126;2023-09-19T16:31:05;21.50;90.90
666;DHT22;315;48.738;9.126;2023-09-19T16:33:36;21.50;90.80
666;DHT22;315;48.738;9.126;2023-09-19T16:36:02;21.40;90.30
666;DHT22;315;48.738;9.126;2023-09-19T16:38:32;21.40;90.50
666;DHT22;315;48.738;9.126;2023-09-19T16:40:58;21.30;90.00
666;DHT22;315;48.738;9.126;2023-09-19T16:43:28;21.20;90.80
666;DHT22;315;48.738;9.126;2023-09-19T16:46:01;21.10;91.20
666;DHT22;315;48.738;9.126;2023-09-19T16:48:27;21.10;92.00
666;DHT22;315;48.738;9.126;2023-09-19T16:50:54;21.10;92.70
666;DHT22;315;48.738;9.126;2023-09-19T16:53:20;21.00;92.90
666;DHT22;315;48.738;9.126;2023-09-19T16:55:48;21.00;93.50
666;DHT22;315;48.738;9.126;2023-09-19T16:58:15;20.90;93.10
666;DHT22;315;48.738;9.126;2023-09-19T17:00:41;20.90;94.00
666;DHT22;315;48.738;9.126;2023-09-19T17:03:09;20.80;94.40
666;DHT22;315;48.738;9.126;2023-09-19T17:05:36;20.80;94.60
666;DHT22;315;48.738;9.126;2023-09-19T17:08:04;20.90;96.30
666;DHT22;315;48.738;9.126;2023-09-19T17:10:31;20.70;96.70
666;DHT22;315;48.738;9.126;2023-09-19T17:12:58;20.70;97.10
666;DHT22;315;48.738;9.126;2023-09-19T17:15:23;20.60;98.80
666;DHT22;315;48.738;9.126;2023-09-19T17:17:50;20.50;98.00
666;DHT22;315;48.738;9.126;2023-09-19T17:20:17;20.50;99.00
666;DHT22;315;48.738;9.126;2023-09-19T17:22:43;20.40;99.90
666;DHT22;315;48.738;9.126;2023-09-19T17:25:09;20.30;99.90
666;DHT22;315;48.738;9.126;2023-09-19T17:27:35;20.30;99.90